Spring Mountain Youth Camp, Nevada Weather observations

Data are for 60 minute period ending at time listed.
 Day   Time   Solar   Ave.   Ave.  Ave.  Vector  Max.   Baro.   Total    
  of    of     Rad.   Air    Rel.  Wind   Wind   Wind  Press.  Precip.   
Year   Day            Temp.  Hum.  Speed  Dir.   Gust                    
2017   (PST)  Kw/m2    F      %     mph   deg.    mph    mb.     in.     
-------------------------------------------------------------------------
  53    6:00   0.00   41.4    11   15.3   208    36.8   787.3    0.00 
  53    7:00   0.01   41.0    10   15.4   200    37.3   787.0    0.00 
  53    8:00   0.16   43.2     9   12.3   202    32.7   786.8    0.00 
  53    9:00   0.41   45.0    10   11.0   215    29.7   786.6    0.00 
  53   10:00   0.60   44.6    22    8.5   199    22.0   786.5    0.00 
  53   11:00   0.75   40.5    49    5.9   182    34.4   786.2    0.00 
  53   12:00   0.83   40.1    51    3.7   207    13.3   785.9    0.00 
  53   13:00   0.85   39.6    56    3.4    12     9.4   785.1    0.00 
  53   14:00   0.75   39.5    55    4.7   174    17.6   784.6    0.00 
  53   15:00   0.67   36.7    55    9.0   147    23.3   784.0    0.00 
  53   16:00   0.45   34.5    41    9.3   172    21.9   783.7    0.00 
  53   17:00   0.06   29.2    55    4.4   224    21.3   783.7    0.00 
  53   18:00   0.00   24.9    91    3.0   139     9.6   783.5    0.00 
  53   19:00   0.00   20.8    95    3.4   162     9.7   783.4    0.00 
  53   20:00   0.00   18.8    94    5.0   165    11.5   783.2    0.00 
  53   21:00   0.00   17.6    92    4.0   198    13.6   783.1    0.00 
  53   22:00   0.00   17.6    73    4.9   151    11.3   782.9    0.00 
  53   23:00   0.00   17.2    62    3.3   158    15.6   782.9    0.00 
  54    0:00   0.00   15.6    61    3.9   149    11.3   782.9    0.00 
  54    1:00   0.00   15.1    63    3.4   160    11.3   783.1    0.00 
  54    2:00   0.00   15.5    63    2.9   265    15.9   783.0    0.00 
  54    3:00   0.00   14.7    61    2.7   162    13.2   782.7    0.00 
  54    4:00   0.00   12.6    69    4.3   155    11.3   782.4    0.00 
  54    5:00   0.00   11.5    69    3.6   171    12.3   782.2    0.00 

Return to Spring Mountain Youth Camp graphs page.


Western Regional Climate Center,wrcc@dri.edu